Time;durP1;ratioP1;P1;durP2;ratioP2;P2;SDS_P1;SDS_P2;PMS_P1;PMS_P2;Temp;Humidity;BMP_temperature;BMP_pressure;BME280_temperature;BME280_humidity;BME280_pressure;Samples;Min_cycle;Max_cycle;Signal;HPM_P1;HPM_P2
2022/10/10 00:00:32;;;;;;;1.55;0.73;;;;;;;8.34;100.00;101546.25;10615112;27;20490;-77
2022/10/10 00:05:35;;;;;;;0.20;0.20;;;;;;;8.29;100.00;101538.34;10623241;27;20035;-77
2022/10/10 00:10:37;;;;;;;0.25;0.13;;;;;;;8.22;100.00;101542.34;10604710;27;20478;-78
2022/10/10 00:15:39;;;;;;;0.85;0.40;;;;;;;8.24;100.00;101538.13;10617347;27;20455;-78
2022/10/10 00:20:40;;;;;;;0.00;0.00;;;;;;;8.12;100.00;101535.00;10587138;27;20054;-77
2022/10/10 00:25:42;;;;;;;0.35;0.20;;;;;;;7.95;100.00;101534.22;10613180;27;20074;-77
2022/10/10 00:30:44;;;;;;;0.40;0.40;;;;;;;7.94;100.00;101533.34;10621334;27;20075;-78
2022/10/10 00:35:46;;;;;;;0.30;0.30;;;;;;;7.92;100.00;101532.41;10595733;27;20035;-77
2022/10/10 00:40:51;;;;;;;0.00;0.00;;;;;;;7.74;100.00;101531.53;10616453;27;20071;-77
2022/10/10 00:45:52;;;;;;;0.90;0.52;;;;;;;7.60;100.00;101533.41;10610449;27;20052;-77
2022/10/10 00:50:59;;;;;;;0.00;0.00;;;;;;;7.55;100.00;101524.63;10601554;27;20384;-78
2022/10/10 00:56:02;;;;;;;0.43;0.40;;;;;;;7.58;100.00;101528.22;10594915;27;20039;-77
2022/10/10 01:01:05;;;;;;;1.02;0.43;;;;;;;7.55;100.00;101530.66;10597448;27;20130;-77
2022/10/10 01:06:07;;;;;;;0.20;0.10;;;;;;;7.42;100.00;101523.16;10604344;27;20043;-77
2022/10/10 01:11:25;;;;;;;0.10;0.10;;;;;;;7.40;100.00;101524.78;10614462;27;20108;-77
2022/10/10 01:16:48;;;;;;;0.20;0.20;;;;;;;7.33;100.00;101522.72;10594810;27;20031;-77
2022/10/10 01:21:58;;;;;;;0.65;0.47;;;;;;;7.24;100.00;101516.34;10598813;27;20051;-77
2022/10/10 01:27:36;;;;;;;0.10;0.10;;;;;;;7.21;100.00;101526.44;10605855;27;20398;-77
2022/10/10 01:32:41;;;;;;;0.75;0.17;;;;;;;7.25;100.00;101515.53;10611688;27;20075;-78
2022/10/10 01:37:53;;;;;;;0.70;0.22;;;;;;;7.21;100.00;101507.63;10600765;27;20036;-77
2022/10/10 01:43:02;;;;;;;0.40;0.40;;;;;;;7.24;100.00;101506.09;10580710;27;20047;-77
2022/10/10 01:48:05;;;;;;;0.30;0.22;;;;;;;7.27;100.00;101501.09;10587744;28;20045;-77
2022/10/10 01:53:18;;;;;;;0.30;0.30;;;;;;;7.29;100.00;101499.50;10620062;28;20118;-77
2022/10/10 01:58:41;;;;;;;0.30;0.30;;;;;;;7.20;100.00;101498.16;10605044;28;20130;-77
2022/10/10 02:03:49;;;;;;;0.15;0.15;;;;;;;7.08;100.00;101490.75;10602021;28;20074;-77
2022/10/10 02:09:20;;;;;;;1.45;0.55;;;;;;;7.12;100.00;101482.41;10614373;28;20043;-78
2022/10/10 02:14:24;;;;;;;;;;;;;;;7.07;100.00;101478.75;10596967;28;20084;-77
2022/10/10 02:19:26;;;;;;;0.00;0.00;;;;;;;7.02;100.00;101480.19;10600495;28;19959;-78
2022/10/10 02:24:28;;;;;;;0.00;0.00;;;;;;;6.98;100.00;101472.34;10613583;28;20540;-78
2022/10/10 02:29:35;;;;;;;0.30;0.30;;;;;;;6.98;100.00;101469.78;10614140;28;20067;-77
2022/10/10 02:34:44;;;;;;;0.20;0.13;;;;;;;7.05;100.00;101470.09;10612942;28;20039;-77
2022/10/10 02:39:52;;;;;;;0.10;0.10;;;;;;;6.94;100.00;101467.00;10614857;28;20501;-77
2022/10/10 02:44:55;;;;;;;0.10;0.10;;;;;;;6.86;100.00;101456.38;10596868;28;20059;-77
2022/10/10 02:49:57;;;;;;;0.05;0.05;;;;;;;6.92;100.00;101456.69;10612508;27;20043;-78
2022/10/10 02:54:58;;;;;;;0.17;0.17;;;;;;;6.91;100.00;101461.75;10620960;27;20040;-77
2022/10/10 03:00:00;;;;;;;0.75;0.60;;;;;;;6.87;100.00;101458.16;10625860;27;20452;-77
2022/10/10 03:05:02;;;;;;;1.10;0.38;;;;;;;6.89;100.00;101453.09;10625457;27;20039;-77
2022/10/10 03:10:06;;;;;;;0.38;0.32;;;;;;;6.87;100.00;101445.34;10622546;27;20074;-77
2022/10/10 03:15:08;;;;;;;0.17;0.17;;;;;;;6.87;100.00;101444.44;10623627;27;20041;-77
2022/10/10 03:20:12;;;;;;;0.15;0.15;;;;;;;6.83;100.00;101443.41;10622332;27;20046;-78
2022/10/10 03:25:14;;;;;;;0.10;0.10;;;;;;;6.93;100.00;101450.75;10609487;27;20031;-77
2022/10/10 03:30:15;;;;;;;0.93;0.43;;;;;;;6.90;100.00;101449.72;10603970;27;20506;-77
2022/10/10 03:35:17;;;;;;;0.08;0.05;;;;;;;6.78;100.00;101458.53;10598786;27;20047;-77
2022/10/10 03:40:18;;;;;;;0.55;0.25;;;;;;;6.89;100.00;101453.94;10611950;27;20043;-77
2022/10/10 03:45:20;;;;;;;0.10;0.10;;;;;;;6.88;100.00;101449.66;10603187;27;20047;-77
2022/10/10 03:50:22;;;;;;;0.88;0.43;;;;;;;6.87;100.00;101444.44;10605726;27;20047;-77
2022/10/10 03:55:23;;;;;;;0.40;0.40;;;;;;;6.88;100.00;101447.09;10602250;27;20035;-76
2022/10/10 04:00:25;;;;;;;0.25;0.17;;;;;;;6.95;100.00;101448.25;10617309;27;20856;-77
2022/10/10 04:05:27;;;;;;;1.00;0.20;;;;;;;6.99;100.00;101445.94;10612130;27;20066;-77
2022/10/10 04:10:28;;;;;;;0.10;0.10;;;;;;;7.01;100.00;101445.13;10618528;27;20088;-77
2022/10/10 04:15:31;;;;;;;0.50;0.45;;;;;;;7.08;100.00;101444.63;10580199;27;20043;-77
2022/10/10 04:20:32;;;;;;;0.15;0.15;;;;;;;7.06;100.00;101441.09;10617070;27;20043;-77
2022/10/10 04:25:34;;;;;;;1.00;0.57;;;;;;;7.06;100.00;101439.44;10611832;27;20054;-77
2022/10/10 04:30:36;;;;;;;0.80;0.52;;;;;;;6.99;100.00;101445.06;10615315;27;20074;-77
2022/10/10 04:35:38;;;;;;;0.55;0.40;;;;;;;7.04;100.00;101447.84;10603225;27;20118;-78
2022/10/10 04:40:39;;;;;;;0.32;0.32;;;;;;;7.04;100.00;101440.16;10597349;27;20100;-77
2022/10/10 04:45:41;;;;;;;0.10;0.10;;;;;;;7.04;100.00;101442.72;10621953;27;20504;-77
2022/10/10 04:50:42;;;;;;;0.80;0.40;;;;;;;7.09;100.00;101436.16;10615235;27;20478;-77
2022/10/10 04:56:00;;;;;;;1.10;0.28;;;;;;;7.15;100.00;101437.31;10608065;27;20043;-77
2022/10/10 05:01:02;;;;;;;0.63;0.63;;;;;;;7.04;100.00;101445.25;10621345;27;20091;-77
2022/10/10 05:06:04;;;;;;;0.28;0.20;;;;;;;7.06;100.00;101438.53;10627186;27;20046;-78
2022/10/10 05:11:05;;;;;;;0.00;0.00;;;;;;;6.99;100.00;101439.94;10628891;27;20173;-77
2022/10/10 05:16:07;;;;;;;0.20;0.10;;;;;;;7.02;100.00;101440.06;10612729;27;20043;-77
2022/10/10 05:21:10;;;;;;;0.77;0.32;;;;;;;7.07;100.00;101440.31;10620839;27;20039;-77
2022/10/10 05:26:12;;;;;;;0.20;0.20;;;;;;;7.04;100.00;101437.59;10602484;27;20454;-77
2022/10/10 05:31:14;;;;;;;0.32;0.30;;;;;;;7.09;100.00;101431.88;10620590;27;20047;-77
2022/10/10 05:36:15;;;;;;;0.38;0.25;;;;;;;6.99;100.00;101445.06;10620895;27;20089;-77
2022/10/10 05:41:17;;;;;;;0.77;0.77;;;;;;;7.09;100.00;101451.53;10615313;27;20091;-78
2022/10/10 05:46:21;;;;;;;0.17;0.17;;;;;;;6.90;100.00;101445.47;10620678;27;20771;-77
2022/10/10 05:51:23;;;;;;;0.75;0.65;;;;;;;6.98;100.00;101449.28;10619009;28;20120;-77
2022/10/10 05:56:25;;;;;;;0.10;0.10;;;;;;;6.95;100.00;101451.72;10620236;28;20043;-77
2022/10/10 06:01:26;;;;;;;0.13;0.13;;;;;;;6.89;100.00;101453.94;10606529;28;20053;-77
2022/10/10 06:06:28;;;;;;;0.70;0.57;;;;;;;6.93;100.00;101450.75;10602782;28;20193;-78
2022/10/10 06:11:29;;;;;;;0.65;0.15;;;;;;;6.90;100.00;101452.28;10618545;28;20130;-77
2022/10/10 06:16:31;;;;;;;0.35;0.35;;;;;;;7.44;100.00;101454.91;10615818;27;20043;-77
2022/10/10 06:21:33;;;;;;;0.15;0.15;;;;;;;8.06;100.00;101422.69;10622379;27;20062;-77
2022/10/10 06:26:34;;;;;;;0.28;0.17;;;;;;;8.36;100.00;101416.28;10602261;27;20070;-77
2022/10/10 06:31:38;;;;;;;0.25;0.25;;;;;;;8.24;100.00;101411.47;10625887;27;20045;-77
2022/10/10 06:36:39;;;;;;;0.13;0.13;;;;;;;8.42;100.00;101419.09;10624727;27;20039;-77
2022/10/10 06:41:41;;;;;;;0.43;0.43;;;;;;;8.43;100.00;101415.72;10624654;27;20070;-78
2022/10/10 06:46:44;;;;;;;0.45;0.38;;;;;;;8.97;100.00;101422.25;10606916;27;20565;-78
2022/10/10 06:51:46;;;;;;;0.10;0.10;;;;;;;9.19;100.00;101416.28;10618824;27;20405;-78
2022/10/10 06:56:48;;;;;;;0.52;0.20;;;;;;;9.53;100.00;101410.75;10607947;27;20129;-77
2022/10/10 07:01:50;;;;;;;0.60;0.45;;;;;;;9.65;100.00;101405.22;10614034;27;20478;-77
2022/10/10 07:06:51;;;;;;;0.28;0.28;;;;;;;9.79;100.00;101408.28;10625817;27;20046;-77
2022/10/10 07:11:53;;;;;;;0.03;0.03;;;;;;;9.85;100.00;101407.63;10606456;27;20130;-77
2022/10/10 07:16:55;;;;;;;0.52;0.47;;;;;;;9.91;100.00;101407.00;10625430;27;20052;-79
2022/10/10 07:21:56;;;;;;;0.52;0.17;;;;;;;10.26;100.00;101413.41;10624385;27;20122;-77
2022/10/10 07:26:58;;;;;;;0.22;0.08;;;;;;;10.39;100.00;101412.16;10620447;27;20059;-77
2022/10/10 07:32:08;;;;;;;3.40;1.08;;;;;;;10.79;100.00;101412.66;10600415;27;20539;-78
2022/10/10 07:37:09;;;;;;;1.15;1.00;;;;;;;10.75;100.00;101406.53;10624551;27;20122;-77
2022/10/10 07:42:11;;;;;;;1.77;0.85;;;;;;;10.66;100.00;101406.22;10601192;27;20413;-77
2022/10/10 07:47:12;;;;;;;1.27;0.90;;;;;;;11.25;100.00;101405.53;10623925;27;20118;-77
2022/10/10 07:52:14;;;;;;;0.35;0.35;;;;;;;10.89;100.00;101409.53;10603644;27;20031;-77
2022/10/10 07:57:16;;;;;;;0.28;0.20;;;;;;;11.88;100.00;101406.50;10635485;27;20457;-77
2022/10/10 08:02:21;;;;;;;0.65;0.20;;;;;;;11.39;100.00;101411.97;10629478;27;20050;-78
2022/10/10 08:07:22;;;;;;;0.35;0.20;;;;;;;11.96;100.00;101409.31;10603495;27;20074;-77
2022/10/10 08:12:24;;;;;;;1.83;0.70;;;;;;;12.03;100.00;101406.13;10622567;27;20043;-77
2022/10/10 08:17:26;;;;;;;0.20;0.20;;;;;;;11.79;100.00;101414.88;10577368;28;20558;-78
2022/10/10 08:22:28;;;;;;;6.03;0.52;;;;;;;12.08;100.00;101414.84;10572965;28;20035;-77
2022/10/10 08:27:29;;;;;;;0.10;0.10;;;;;;;12.53;100.00;101418.66;10587292;27;20073;-78
2022/10/10 08:32:31;;;;;;;0.32;0.22;;;;;;;12.86;100.00;101412.56;10618001;27;20042;-77
2022/10/10 08:37:32;;;;;;;1.17;0.75;;;;;;;13.00;100.00;101411.19;10603236;27;20039;-77
2022/10/10 08:42:41;;;;;;;0.10;0.10;;;;;;;13.79;100.00;101407.81;10608302;27;20035;-77
2022/10/10 08:47:59;;;;;;;1.45;0.98;;;;;;;13.98;100.00;101415.06;10621500;27;20051;-77
2022/10/10 08:53:07;;;;;;;0.93;0.60;;;;;;;13.44;100.00;101412.25;10604152;27;20134;-77
2022/10/10 08:58:32;;;;;;;0.90;0.60;;;;;;;13.82;100.00;101401.81;10602159;27;20446;-77
2022/10/10 09:03:40;;;;;;;1.02;0.43;;;;;;;14.16;100.00;101399.00;10594669;27;20057;-78
2022/10/10 09:09:14;;;;;;;0.55;0.45;;;;;;;13.63;100.00;101398.84;10597751;27;20046;-77
2022/10/10 09:14:15;;;;;;;0.75;0.28;;;;;;;13.72;100.00;101402.47;10622846;27;20067;-78
2022/10/10 09:19:40;;;;;;;1.35;0.85;;;;;;;14.09;100.00;101403.22;10620719;27;20045;-78
2022/10/10 09:24:52;;;;;;;0.30;0.30;;;;;;;14.30;100.00;101407.06;10621464;27;20142;-78
2022/10/10 09:30:04;;;;;;;0.28;0.28;;;;;;;14.44;100.00;101410.78;10603103;27;20039;-78
2022/10/10 09:35:20;;;;;;;0.28;0.20;;;;;;;14.55;100.00;101403.19;10598147;27;20049;-76
2022/10/10 09:40:40;;;;;;;0.35;0.30;;;;;;;15.12;100.00;101403.25;10601783;27;20122;-78
2022/10/10 09:45:50;;;;;;;2.80;0.60;;;;;;;15.33;100.00;101403.59;10596356;27;20051;-78
2022/10/10 09:50:52;;;;;;;0.10;0.10;;;;;;;15.22;100.00;101405.16;10589475;28;20051;-79
2022/10/10 09:55:54;;;;;;;0.57;0.25;;;;;;;15.25;100.00;101412.09;10618837;28;20050;-77
2022/10/10 10:01:16;;;;;;;1.63;0.85;;;;;;;15.11;100.00;101402.41;10598857;27;20070;-76
2022/10/10 10:06:19;;;;;;;6.82;0.82;;;;;;;15.34;100.00;101412.25;10626834;27;20075;-77
2022/10/10 10:11:32;;;;;;;0.47;0.45;;;;;;;15.78;100.00;101405.91;10627358;27;20130;-77
2022/10/10 10:16:37;;;;;;;1.83;0.73;;;;;;;16.40;100.00;101393.59;10608296;27;20046;-78
2022/10/10 10:21:49;;;;;;;0.98;0.65;;;;;;;15.57;100.00;101414.28;10606974;27;20552;-78
2022/10/10 10:26:51;;;;;;;0.50;0.50;;;;;;;16.11;100.00;101405.47;10626627;27;20130;-77
2022/10/10 10:32:22;;;;;;;0.95;0.60;;;;;;;16.10;100.00;101400.22;10605492;27;20043;-78
2022/10/10 10:37:42;;;;;;;0.70;0.45;;;;;;;16.08;100.00;101402.81;10606018;27;20047;-78
2022/10/10 10:43:02;;;;;;;0.65;0.43;;;;;;;16.08;100.00;101407.16;10620716;27;20046;-77
2022/10/10 10:48:06;;;;;;;0.60;0.50;;;;;;;15.91;100.00;101414.75;10626652;27;20043;-77
2022/10/10 10:53:37;;;;;;;1.00;0.73;;;;;;;16.18;100.00;101398.59;10625048;27;20043;-78
2022/10/10 10:59:14;;;;;;;0.63;0.63;;;;;;;16.09;100.00;101412.38;10623784;27;20043;-77
2022/10/10 11:05:00;;;;;;;0.80;0.80;;;;;;;16.53;100.00;101420.59;10625264;27;20084;-77
2022/10/10 11:10:36;;;;;;;0.63;0.57;;;;;;;16.04;100.00;101416.66;10620105;27;20071;-79
2022/10/10 11:16:01;;;;;;;1.35;0.85;;;;;;;16.28;100.00;101430.75;10600543;27;20046;-77
2022/10/10 11:21:19;;;;;;;0.30;0.30;;;;;;;16.38;100.00;101422.22;10625803;27;20046;-78
2022/10/10 11:26:25;;;;;;;2.95;1.20;;;;;;;16.13;100.00;101426.28;10628065;27;20035;-78
2022/10/10 11:31:41;;;;;;;0.45;0.45;;;;;;;16.87;100.00;101436.50;10601262;27;20486;-78
2022/10/10 11:36:45;;;;;;;0.10;0.10;;;;;;;17.32;100.00;101435.13;10609634;27;20035;-78
2022/10/10 11:41:54;;;;;;;1.27;0.35;;;;;;;17.90;100.00;101433.72;10604895;27;20114;-78
2022/10/10 11:47:10;;;;;;;0.65;0.65;;;;;;;16.99;100.00;101435.78;10623263;27;20367;-78
2022/10/10 11:52:24;;;;;;;1.02;0.55;;;;;;;17.80;100.00;101432.78;10603906;27;20142;-79
2022/10/10 11:57:48;;;;;;;0.30;0.17;;;;;;;18.65;100.00;101429.56;10623773;27;20043;-78
2022/10/10 12:02:50;;;;;;;3.10;0.43;;;;;;;18.02;100.00;101436.41;10622047;27;20066;-78
2022/10/10 12:07:58;;;;;;;0.10;0.10;;;;;;;17.77;100.00;101435.41;10596598;27;20048;-77
2022/10/10 12:13:18;;;;;;;0.23;0.20;;;;;;;19.15;100.00;101433.94;10603279;27;20062;-77
2022/10/10 12:18:29;;;;;;;0.20;0.10;;;;;;;19.06;100.00;101427.84;10602490;27;20122;-77
2022/10/10 12:23:32;;;;;;;0.57;0.10;;;;;;;19.05;100.00;101428.72;10622391;27;20089;-77
2022/10/10 12:29:10;;;;;;;0.73;0.52;;;;;;;18.38;100.00;101421.72;10617993;27;20503;-78
2022/10/10 12:34:42;;;;;;;0.75;0.32;;;;;;;17.76;100.00;101426.69;10571400;27;20063;-76
2022/10/10 12:40:05;;;;;;;11.95;3.20;;;;;;;17.73;100.00;101446.66;10607701;27;20114;-77
2022/10/10 12:45:29;;;;;;;0.25;0.20;;;;;;;17.57;100.00;101448.31;10596694;27;20130;-78
2022/10/10 12:50:39;;;;;;;0.95;0.47;;;;;;;17.19;100.00;101449.84;10599054;27;20078;-77
2022/10/10 12:55:44;;;;;;;0.25;0.25;;;;;;;17.03;100.00;101448.81;10614450;27;20122;-77
2022/10/10 13:00:47;;;;;;;6.75;0.90;;;;;;;17.33;100.00;101452.50;10599575;27;20039;-78
2022/10/10 13:05:49;;;;;;;1.58;1.27;;;;;;;17.44;100.00;101461.28;10618766;27;20075;-78
2022/10/10 13:11:01;;;;;;;2.95;0.60;;;;;;;17.22;100.00;101475.88;10605204;27;20059;-79
2022/10/10 13:16:12;;;;;;;2.17;1.55;;;;;;;17.20;100.00;101482.78;10633813;27;20059;-77
2022/10/10 13:21:18;;;;;;;0.38;0.10;;;;;;;16.96;100.00;101483.47;10606184;27;20046;-76
2022/10/10 13:26:24;;;;;;;2.65;0.85;;;;;;;16.73;100.00;101486.69;10595660;27;20070;-77
2022/10/10 13:31:28;;;;;;;0.40;0.32;;;;;;;16.48;100.00;101506.38;10625632;27;20050;-77
2022/10/10 13:36:30;;;;;;;0.40;0.32;;;;;;;16.30;100.00;101501.84;10631918;27;20043;-77
2022/10/10 13:41:31;;;;;;;1.63;0.82;;;;;;;16.21;100.00;101512.13;10611554;27;20070;-76
2022/10/10 13:46:33;;;;;;;0.13;0.05;;;;;;;16.06;100.00;101534.47;10618499;27;20070;-76
2022/10/10 13:51:44;;;;;;;1.10;0.50;;;;;;;16.00;100.00;101550.00;10599675;28;20066;-76
2022/10/10 13:56:46;;;;;;;1.10;0.82;;;;;;;15.94;100.00;101555.13;10587056;28;20043;-77
2022/10/10 14:01:53;;;;;;;1.38;0.40;;;;;;;15.85;100.00;101587.03;10618600;28;20044;-76
2022/10/10 14:06:59;;;;;;;0.65;0.38;;;;;;;15.79;100.00;101594.69;10591972;28;20048;-75
2022/10/10 14:12:05;;;;;;;0.55;0.25;;;;;;;15.63;100.00;101596.19;10610995;28;20494;-77
2022/10/10 14:17:08;;;;;;;0.30;0.30;;;;;;;15.55;100.00;101599.53;10600443;28;20462;-77
2022/10/10 14:22:10;;;;;;;0.98;0.30;;;;;;;15.55;100.00;101620.31;10615984;28;20051;-75
2022/10/10 14:27:20;;;;;;;0.00;0.00;;;;;;;15.46;100.00;101633.13;10588605;28;20050;-77
2022/10/10 14:32:22;;;;;;;0.93;0.65;;;;;;;15.27;100.00;101646.63;10614756;28;20045;-76
2022/10/10 14:37:26;;;;;;;0.90;0.30;;;;;;;15.14;100.00;101666.28;10607859;28;20068;-75
2022/10/10 14:42:27;;;;;;;0.45;0.20;;;;;;;15.02;100.00;101688.56;10599440;28;20448;-75
2022/10/10 14:47:29;;;;;;;0.38;0.17;;;;;;;14.63;100.00;101706.75;10625134;27;20043;-76
2022/10/10 14:52:30;;;;;;;1.55;1.45;;;;;;;14.44;100.00;101727.06;10609922;27;20492;-75
2022/10/10 14:57:32;;;;;;;0.22;0.20;;;;;;;14.44;100.00;101742.59;10627920;27;20092;-77
2022/10/10 15:02:33;;;;;;;1.08;0.88;;;;;;;14.25;100.00;101778.47;10609317;27;20050;-77
2022/10/10 15:07:35;;;;;;;0.73;0.57;;;;;;;14.12;100.00;101797.13;10606408;27;20513;-79
2022/10/10 15:12:39;;;;;;;0.77;0.50;;;;;;;14.04;100.00;101894.50;10623943;27;20050;-78
2022/10/10 15:17:41;;;;;;;1.10;0.68;;;;;;;14.04;100.00;101928.19;10604317;27;20092;-79
2022/10/10 15:22:44;;;;;;;0.90;0.30;;;;;;;13.76;100.00;101994.75;10597279;27;20066;-76
2022/10/10 15:27:46;;;;;;;0.10;0.10;;;;;;;12.52;100.00;102009.66;10620662;27;20039;-75
2022/10/10 15:32:48;;;;;;;0.00;0.00;;;;;;;12.24;100.00;102049.16;10624771;27;20045;-76
2022/10/10 15:37:49;;;;;;;0.05;0.03;;;;;;;12.12;100.00;102061.59;10602295;27;20047;-77
2022/10/10 15:42:51;;;;;;;0.05;0.05;;;;;;;11.98;100.00;102079.16;10623677;27;20047;-78
2022/10/10 15:47:52;;;;;;;0.20;0.20;;;;;;;12.04;100.00;102082.84;10594904;27;20116;-77
2022/10/10 15:52:54;;;;;;;0.10;0.00;;;;;;;12.10;100.00;102094.25;10595578;27;20146;-78
2022/10/10 15:57:55;;;;;;;0.00;0.00;;;;;;;12.05;100.00;102106.97;10620833;27;20062;-78
2022/10/10 16:02:57;;;;;;;0.00;0.00;;;;;;;11.92;100.00;102131.41;10609695;27;20386;-77
2022/10/10 16:07:58;;;;;;;0.00;0.00;;;;;;;11.98;100.00;102133.38;10601611;27;20492;-77
2022/10/10 16:13:00;;;;;;;0.00;0.00;;;;;;;11.97;100.00;102137.66;10618828;27;20229;-77
2022/10/10 16:18:02;;;;;;;0.47;0.30;;;;;;;11.82;100.00;102139.59;10623256;27;20081;-77
2022/10/10 16:23:03;;;;;;;0.00;0.00;;;;;;;11.78;100.00;102127.38;10605792;27;20070;-77
2022/10/10 16:28:05;;;;;;;0.00;0.00;;;;;;;11.72;100.00;102113.41;10622994;27;20039;-78
2022/10/10 16:33:06;;;;;;;1.45;0.10;;;;;;;11.65;100.00;102116.56;10623452;27;20074;-77
2022/10/10 16:38:08;;;;;;;0.20;0.20;;;;;;;11.71;100.00;102118.50;10580267;27;20134;-76
2022/10/10 16:43:09;;;;;;;0.98;0.15;;;;;;;11.56;100.00;102132.53;10590760;27;20118;-77
2022/10/10 16:48:12;;;;;;;0.00;0.00;;;;;;;11.53;100.00;102132.44;10603764;27;20067;-77
2022/10/10 16:53:13;;;;;;;0.32;0.32;;;;;;;11.41;100.00;102143.09;10618358;27;20073;-76
2022/10/10 16:58:16;;;;;;;9.95;0.43;;;;;;;11.30;100.00;102152.06;10621948;27;20055;-77
2022/10/10 17:03:18;;;;;;;0.20;0.20;;;;;;;11.13;100.00;102163.38;10622040;27;20035;-77
2022/10/10 17:08:19;;;;;;;0.00;0.00;;;;;;;10.90;100.00;102173.56;10620203;27;20042;-76
2022/10/10 17:13:21;;;;;;;0.20;0.00;;;;;;;10.92;100.00;102177.06;10619448;27;20046;-77
2022/10/10 17:18:25;;;;;;;9.13;0.22;;;;;;;10.77;100.00;102182.41;10600870;27;20039;-77
2022/10/10 17:23:27;;;;;;;0.00;0.00;;;;;;;10.69;100.00;102194.94;10621372;27;20409;-77
2022/10/10 17:28:28;;;;;;;0.40;0.20;;;;;;;10.65;100.00;102216.25;10583947;27;20039;-76
2022/10/10 17:33:30;;;;;;;0.00;0.00;;;;;;;10.58;100.00;102230.53;10620145;27;20043;-76
2022/10/10 17:38:32;;;;;;;0.00;0.00;;;;;;;10.51;100.00;102250.78;10622249;27;20051;-77
2022/10/10 17:43:40;;;;;;;0.00;0.00;;;;;;;10.34;100.00;102257.69;10604076;27;20072;-76
2022/10/10 17:48:42;;;;;;;0.00;0.00;;;;;;;10.00;100.00;102262.91;10603556;27;20035;-77
2022/10/10 17:53:43;;;;;;;0.63;0.10;;;;;;;9.52;100.00;102281.06;10618214;28;20039;-76
2022/10/10 17:58:46;;;;;;;0.20;0.03;;;;;;;9.66;100.00;102304.06;10569949;28;20043;-77
2022/10/10 18:03:47;;;;;;;0.10;0.10;;;;;;;9.26;100.00;102307.13;10620164;28;20082;-78
2022/10/10 18:08:52;;;;;;;0.00;0.00;;;;;;;9.28;100.00;102324.41;10601115;28;20043;-77
2022/10/10 18:13:58;;;;;;;0.10;0.10;;;;;;;9.25;100.00;102326.78;10619941;27;20118;-77
2022/10/10 18:19:03;;;;;;;0.00;0.00;;;;;;;9.30;100.00;102332.19;10601175;27;20039;-76
2022/10/10 18:24:05;;;;;;;0.03;0.00;;;;;;;9.31;100.00;102351.97;10625063;27;20509;-77
2022/10/10 18:29:07;;;;;;;0.10;0.03;;;;;;;8.98;100.00;102359.56;10604397;27;20043;-77
2022/10/10 18:34:09;;;;;;;0.00;0.00;;;;;;;8.82;100.00;102362.97;10621914;27;20094;-77
2022/10/10 18:39:15;;;;;;;0.00;0.00;;;;;;;8.75;100.00;102366.00;10625914;27;20127;-77
2022/10/10 18:44:17;;;;;;;0.00;0.00;;;;;;;8.58;100.00;102368.50;10612295;27;20079;-77
2022/10/10 18:49:19;;;;;;;0.00;0.00;;;;;;;8.54;100.00;102375.13;10609328;27;20071;-76
2022/10/10 18:54:21;;;;;;;0.22;0.00;;;;;;;8.46;100.00;102389.16;10589519;27;20035;-77
2022/10/10 18:59:23;;;;;;;0.00;0.00;;;;;;;8.62;100.00;102400.38;10608300;27;20354;-77
2022/10/10 19:04:24;;;;;;;0.00;0.00;;;;;;;8.67;100.00;102398.97;10591631;27;20061;-77
2022/10/10 19:09:26;;;;;;;0.00;0.00;;;;;;;8.32;100.00;102410.59;10623478;27;20027;-77
2022/10/10 19:14:31;;;;;;;0.00;0.00;;;;;;;8.25;100.00;102415.38;10625087;27;20110;-76
2022/10/10 19:19:33;;;;;;;0.28;0.20;;;;;;;8.34;100.00;102429.56;10608212;27;20095;-76
2022/10/10 19:24:35;;;;;;;0.10;0.10;;;;;;;8.38;100.00;102434.06;10627173;27;20130;-76
2022/10/10 19:29:37;;;;;;;0.00;0.00;;;;;;;8.36;100.00;102443.38;10623965;27;20067;-76
2022/10/10 19:34:39;;;;;;;0.03;0.03;;;;;;;8.37;100.00;102461.44;10618662;27;20082;-76
2022/10/10 19:39:41;;;;;;;0.05;0.05;;;;;;;8.15;100.00;102464.41;10607367;27;20031;-77
2022/10/10 19:44:46;;;;;;;0.32;0.10;;;;;;;8.22;100.00;102469.13;10607100;27;20134;-76
2022/10/10 19:49:47;;;;;;;0.00;0.00;;;;;;;8.01;100.00;102480.63;10606937;27;20069;-76
2022/10/10 19:54:51;;;;;;;0.00;0.00;;;;;;;7.94;100.00;102480.25;10625112;27;20054;-76
2022/10/10 19:59:53;;;;;;;0.00;0.00;;;;;;;7.82;100.00;102497.44;10625412;27;20054;-76
2022/10/10 20:04:54;;;;;;;0.10;0.10;;;;;;;7.59;100.00;102485.75;10620394;27;20049;-76
2022/10/10 20:09:56;;;;;;;0.47;0.30;;;;;;;7.79;100.00;102497.25;10606632;27;20039;-76
2022/10/10 20:14:58;;;;;;;0.10;0.10;;;;;;;7.76;100.00;102505.63;10606415;27;20137;-77
2022/10/10 20:20:01;;;;;;;0.73;0.22;;;;;;;7.78;100.00;102513.47;10600040;27;20031;-76
2022/10/10 20:25:30;;;;;;;0.32;0.22;;;;;;;7.85;100.00;102515.63;10601326;27;20046;-76
2022/10/10 20:30:33;;;;;;;0.05;0.05;;;;;;;7.77;100.00;102521.94;10602213;27;20047;-76
2022/10/10 20:35:36;;;;;;;0.70;0.25;;;;;;;7.49;100.00;102521.84;10605446;27;20046;-76
2022/10/10 20:40:43;;;;;;;0.10;0.10;;;;;;;7.59;100.00;102532.78;10598282;27;20114;-76
2022/10/10 20:45:45;;;;;;;0.20;0.20;;;;;;;7.68;100.00;102547.88;10616006;27;20057;-75
2022/10/10 20:50:50;;;;;;;0.00;0.00;;;;;;;7.47;100.00;102552.53;10601343;27;20573;-75
2022/10/10 20:55:52;;;;;;;0.00;0.00;;;;;;;7.12;100.00;102553.63;10617305;27;20118;-76
2022/10/10 21:01:10;;;;;;;0.88;0.20;;;;;;;7.08;100.00;102562.78;10619267;27;20069;-76
2022/10/10 21:06:22;;;;;;;0.03;0.03;;;;;;;7.23;100.00;102573.19;10594504;27;20043;-76
2022/10/10 21:11:24;;;;;;;0.32;0.10;;;;;;;7.33;100.00;102574.69;10614691;27;20048;-76
2022/10/10 21:16:38;;;;;;;0.57;0.35;;;;;;;7.24;100.00;102580.09;10619862;27;20118;-77
2022/10/10 21:21:40;;;;;;;0.00;0.00;;;;;;;6.75;100.00;102581.91;10620378;27;20049;-76
2022/10/10 21:26:42;;;;;;;1.30;0.75;;;;;;;6.62;100.00;102585.31;10618443;27;20079;-76
2022/10/10 21:31:44;;;;;;;0.20;0.10;;;;;;;6.59;100.00;102595.31;10617534;27;20080;-77
2022/10/10 21:36:45;;;;;;;0.10;0.10;;;;;;;6.89;100.00;102613.59;10596728;27;20077;-76
2022/10/10 21:41:47;;;;;;;0.00;0.00;;;;;;;6.84;100.00;102608.16;10603630;27;20050;-76
2022/10/10 21:46:50;;;;;;;0.05;0.05;;;;;;;6.80;100.00;102611.31;10597328;27;20415;-76
2022/10/10 21:51:52;;;;;;;1.67;0.10;;;;;;;6.45;100.00;102623.44;10621636;27;20475;-76
2022/10/10 21:56:54;;;;;;;0.28;0.13;;;;;;;6.34;100.00;102632.00;10613053;27;20058;-76
2022/10/10 22:01:55;;;;;;;0.15;0.15;;;;;;;6.23;100.00;102635.47;10634961;27;20562;-76
2022/10/10 22:06:57;;;;;;;0.50;0.50;;;;;;;6.16;100.00;102639.25;10627527;27;20039;-77
2022/10/10 22:11:59;;;;;;;0.63;0.25;;;;;;;5.82;100.00;102630.00;10634903;27;20049;-76
2022/10/10 22:17:00;;;;;;;0.10;0.03;;;;;;;6.22;100.00;102638.81;10627984;27;20047;-76
2022/10/10 22:22:02;;;;;;;0.17;0.10;;;;;;;6.01;100.00;102629.69;10615370;27;20398;-76
2022/10/10 22:27:03;;;;;;;0.30;0.17;;;;;;;6.10;100.00;102646.50;10635091;27;20092;-76
2022/10/10 22:32:05;;;;;;;0.00;0.00;;;;;;;5.96;100.00;102648.91;10615833;27;20039;-76
2022/10/10 22:37:07;;;;;;;0.22;0.20;;;;;;;5.97;100.00;102655.81;10634655;27;20517;-77
2022/10/10 22:42:08;;;;;;;0.00;0.00;;;;;;;5.96;100.00;102654.03;10609508;27;20046;-77
2022/10/10 22:47:10;;;;;;;0.00;0.00;;;;;;;5.62;100.00;102669.44;10627824;27;20431;-76
2022/10/10 22:52:12;;;;;;;0.10;0.10;;;;;;;5.61;100.00;102680.47;10633759;27;20455;-77
2022/10/10 22:57:14;;;;;;;3.92;0.75;;;;;;;5.66;100.00;102681.69;10615139;27;20043;-77
2022/10/10 23:02:15;;;;;;;0.32;0.30;;;;;;;5.67;100.00;102688.59;10633894;27;20039;-77
2022/10/10 23:07:20;;;;;;;0.28;0.28;;;;;;;5.93;100.00;102688.75;10607065;27;20077;-76
2022/10/10 23:12:21;;;;;;;0.10;0.10;;;;;;;5.61;100.00;102682.13;10602589;27;20093;-76
2022/10/10 23:17:24;;;;;;;0.00;0.00;;;;;;;5.63;100.00;102684.00;10611068;27;20047;-76